createdAt,value
2023-04-15T00:01:04.750Z,96231.78
2023-04-15T00:03:31.384Z,96232.41
2023-04-15T00:05:57.952Z,96212.13
2023-04-15T00:08:24.390Z,96221.53
2023-04-15T00:10:50.765Z,96208.06
2023-04-15T00:13:17.226Z,96204.50
2023-04-15T00:15:43.662Z,96206.81
2023-04-15T00:18:10.134Z,96206.88
2023-04-15T00:20:36.535Z,96214.06
2023-04-15T00:23:02.935Z,96213.63
2023-04-15T00:25:29.373Z,96202.53
2023-04-15T00:27:55.879Z,96196.91
2023-04-15T00:30:22.313Z,96191.75
2023-04-15T00:32:48.775Z,96185.91
2023-04-15T00:35:15.276Z,96200.78
2023-04-15T00:37:42.161Z,96192.81
2023-04-15T00:40:09.357Z,96194.91
2023-04-15T00:42:35.787Z,96202.66
2023-04-15T00:45:02.238Z,96192.59
2023-04-15T00:47:28.731Z,96193.28
2023-04-15T00:49:55.175Z,96195.72
2023-04-15T00:52:21.578Z,96201.81
2023-04-15T00:54:47.990Z,96195.25
2023-04-15T00:57:14.492Z,96198.06
2023-04-15T00:59:40.926Z,96187.53
2023-04-15T01:02:07.497Z,96201.00
2023-04-15T01:04:34.227Z,96199.72
2023-04-15T01:07:00.766Z,96202.50
2023-04-15T01:09:27.242Z,96209.28
2023-04-15T01:11:53.712Z,96202.63
2023-04-15T01:14:20.168Z,96206.97
2023-04-15T01:16:46.604Z,96203.19
2023-04-15T01:19:13.079Z,96205.56
2023-04-15T01:21:39.513Z,96208.25
2023-04-15T01:24:05.961Z,96203.22
2023-04-15T01:26:32.452Z,96207.69
2023-04-15T01:28:59.082Z,96199.59
2023-04-15T01:31:25.861Z,96198.56
2023-04-15T01:33:52.334Z,96196.22
2023-04-15T01:36:18.789Z,96201.38
2023-04-15T01:38:45.223Z,96197.50
2023-04-15T01:41:11.695Z,96198.06
2023-04-15T01:43:38.236Z,96196.47
2023-04-15T01:46:04.735Z,96193.16
2023-04-15T01:48:31.179Z,96195.03
2023-04-15T01:50:57.594Z,96190.34
2023-04-15T01:53:28.732Z,96189.13
2023-04-15T01:55:55.203Z,96185.72
2023-04-15T02:01:12.704Z,96196.06
2023-04-15T02:03:39.299Z,96197.56
2023-04-15T02:08:46.151Z,96206.66
2023-04-15T02:11:12.590Z,96206.41
2023-04-15T02:13:39.070Z,96208.00
2023-04-15T02:16:05.553Z,96202.38
2023-04-15T02:18:32.042Z,96203.00
2023-04-15T02:20:58.681Z,96195.91
2023-04-15T02:23:25.432Z,96199.63
2023-04-15T02:25:53.529Z,96192.22
2023-04-15T02:28:20.850Z,96188.63
2023-04-15T02:30:47.261Z,96192.81
2023-04-15T02:33:13.702Z,96187.47
2023-04-15T02:35:40.144Z,96192.41
2023-04-15T02:38:06.582Z,96187.75
2023-04-15T02:40:32.999Z,96183.44
2023-04-15T02:42:59.420Z,96190.47
2023-04-15T02:45:25.852Z,96186.75
2023-04-15T02:47:52.318Z,96181.13
2023-04-15T02:50:18.846Z,96187.69
2023-04-15T02:52:45.327Z,96184.31
2023-04-15T02:55:11.744Z,96168.88
2023-04-15T02:57:38.182Z,96163.63
2023-04-15T03:00:04.614Z,96168.34
2023-04-15T03:02:31.121Z,96179.44
2023-04-15T03:04:57.677Z,96172.31
2023-04-15T03:07:24.143Z,96173.03
2023-04-15T03:09:50.512Z,96170.22
2023-04-15T03:12:16.913Z,96174.19
2023-04-15T03:14:43.311Z,96167.19
2023-04-15T03:17:09.783Z,96178.63
2023-04-15T03:19:36.224Z,96175.47
2023-04-15T03:22:02.633Z,96172.78
2023-04-15T03:24:29.123Z,96166.38
2023-04-15T03:26:55.558Z,96165.31
2023-04-15T03:29:21.982Z,96173.97
2023-04-15T03:31:48.481Z,96167.56
2023-04-15T03:34:14.895Z,96163.56
2023-04-15T03:36:41.334Z,96171.38
2023-04-15T03:39:07.713Z,96178.94
2023-04-15T03:41:34.133Z,96171.34
2023-04-15T03:44:00.547Z,96169.47
2023-04-15T03:46:26.959Z,96171.69
2023-04-15T03:48:56.249Z,96167.63
2023-04-15T03:51:22.670Z,96165.66
2023-04-15T03:53:49.179Z,96169.97
2023-04-15T03:56:15.600Z,96158.47
2023-04-15T03:58:42.099Z,96171.44
2023-04-15T04:01:08.563Z,96173.16
2023-04-15T04:03:35.040Z,96173.13
2023-04-15T04:06:01.594Z,96174.56
2023-04-15T04:08:28.050Z,96176.56
2023-04-15T04:10:54.538Z,96167.47
2023-04-15T04:13:21.056Z,96157.50
2023-04-15T04:15:49.570Z,96163.78
2023-04-15T04:18:16.088Z,96163.22
2023-04-15T04:20:42.523Z,96158.69
2023-04-15T04:23:09.000Z,96158.13
2023-04-15T04:25:35.440Z,96159.22
2023-04-15T04:28:01.851Z,96162.50
2023-04-15T04:30:28.299Z,96161.09
2023-04-15T04:32:54.730Z,96162.97
2023-04-15T04:35:21.220Z,96164.94
2023-04-15T04:37:47.664Z,96167.72
2023-04-15T04:40:14.136Z,96163.50
2023-04-15T04:42:40.561Z,96173.66
2023-04-15T04:45:07.008Z,96176.34
2023-04-15T04:47:33.448Z,96174.25
2023-04-15T04:49:59.889Z,96178.59
2023-04-15T04:52:26.333Z,96173.81
2023-04-15T04:54:52.758Z,96178.50
2023-04-15T04:57:19.177Z,96180.50
2023-04-15T04:59:45.622Z,96182.03
2023-04-15T05:02:12.144Z,96178.53
2023-04-15T05:04:38.629Z,96177.47
2023-04-15T05:07:05.052Z,96181.00
2023-04-15T05:09:31.493Z,96173.50
2023-04-15T05:11:57.920Z,96172.22
2023-04-15T05:14:24.322Z,96166.84
2023-04-15T05:16:50.685Z,96164.16
2023-04-15T05:19:17.135Z,96153.97
2023-04-15T05:21:43.582Z,96153.72
2023-04-15T05:24:09.987Z,96151.03
2023-04-15T05:26:36.481Z,96146.13
2023-04-15T05:29:03.028Z,96142.41
2023-04-15T05:31:29.724Z,96139.47
2023-04-15T05:33:56.635Z,96134.47
2023-04-15T05:36:23.068Z,96138.06
2023-04-15T05:38:49.552Z,96140.88
2023-04-15T05:44:07.610Z,96149.56
2023-04-15T05:46:34.068Z,96157.38
2023-04-15T05:49:00.879Z,96157.16
2023-04-15T05:51:27.497Z,96147.78
2023-04-15T05:53:53.996Z,96145.69
2023-04-15T05:59:03.145Z,96127.16
2023-04-15T06:01:29.673Z,96133.16
2023-04-15T06:03:58.865Z,96130.34
2023-04-15T06:06:25.319Z,96131.28
2023-04-15T06:08:51.831Z,96128.00
2023-04-15T06:11:18.253Z,96125.09
2023-04-15T06:13:44.730Z,96132.78
2023-04-15T06:16:11.149Z,96125.81
2023-04-15T06:18:37.541Z,96121.09
2023-04-15T06:21:03.893Z,96121.56
2023-04-15T06:23:30.271Z,96124.59
2023-04-15T06:25:56.651Z,96116.63
2023-04-15T06:28:23.130Z,96114.84
2023-04-15T06:30:49.556Z,96122.81
2023-04-15T06:33:15.928Z,96130.31
2023-04-15T06:35:42.287Z,96122.03
2023-04-15T06:38:08.670Z,96121.91
2023-04-15T06:40:35.075Z,96118.91
2023-04-15T06:43:01.497Z,96133.97
2023-04-15T06:45:27.946Z,96138.31
2023-04-15T06:47:54.428Z,96155.38
2023-04-15T06:50:20.834Z,96169.41
2023-04-15T06:52:48.166Z,96187.47
2023-04-15T06:55:14.544Z,96194.72
2023-04-15T06:57:41.038Z,96198.28
2023-04-15T07:00:07.414Z,96204.50
2023-04-15T07:02:33.906Z,96216.13
2023-04-15T07:05:00.458Z,96218.78
2023-04-15T07:07:26.971Z,96210.78
2023-04-15T07:09:53.489Z,96210.56
2023-04-15T07:18:02.284Z,96222.91
2023-04-15T07:20:28.764Z,96222.38
2023-04-15T07:22:55.362Z,96222.34
2023-04-15T07:25:21.869Z,96218.91
2023-04-15T07:27:48.297Z,96221.50
2023-04-15T07:30:14.767Z,96214.31
2023-04-15T07:32:41.213Z,96223.06
2023-04-15T07:35:07.710Z,96228.59
2023-04-15T07:37:34.252Z,96226.94
2023-04-15T07:40:00.682Z,96225.69
2023-04-15T07:42:27.163Z,96236.66
2023-04-15T07:44:53.674Z,96223.91
2023-04-15T07:47:21.348Z,96227.66
2023-04-15T07:49:47.908Z,96232.69
2023-04-15T07:52:14.378Z,96231.19
2023-04-15T07:54:40.828Z,96237.31
2023-04-15T07:57:07.473Z,96238.97
2023-04-15T07:59:33.893Z,96236.22
2023-04-15T08:02:00.358Z,96227.94
2023-04-15T08:04:26.961Z,96228.16
2023-04-15T08:06:56.208Z,96226.38
2023-04-15T08:09:22.726Z,96227.97
2023-04-15T08:11:49.105Z,96232.25
2023-04-15T08:14:15.595Z,96228.91
2023-04-15T08:16:42.041Z,96224.13
2023-04-15T08:19:08.449Z,96230.03
2023-04-15T08:21:34.848Z,96223.72
2023-04-15T08:24:01.335Z,96233.75
2023-04-15T08:26:27.837Z,96227.31
2023-04-15T08:28:54.392Z,96232.81
2023-04-15T08:31:20.777Z,96239.22
2023-04-15T08:33:47.212Z,96233.66
2023-04-15T08:36:13.575Z,96241.16
2023-04-15T08:38:39.995Z,96238.09
2023-04-15T08:41:07.570Z,96243.09
2023-04-15T08:43:36.036Z,96248.41
2023-04-15T08:46:02.463Z,96257.34
2023-04-15T08:48:29.068Z,96251.22
2023-04-15T08:50:55.542Z,96258.56
2023-04-15T08:53:21.962Z,96251.88
2023-04-15T08:55:48.438Z,96239.63
2023-04-15T08:58:14.858Z,96245.28
2023-04-15T09:00:41.283Z,96236.78
2023-04-15T09:03:07.911Z,96244.78
2023-04-15T09:05:34.557Z,96244.03
2023-04-15T09:08:01.068Z,96244.31
2023-04-15T09:10:27.497Z,96251.13
2023-04-15T09:12:54.033Z,96263.78
2023-04-15T09:15:21.578Z,96260.78
2023-04-15T09:17:47.991Z,96258.03
2023-04-15T09:20:14.421Z,96265.56
2023-04-15T09:22:40.793Z,96265.50
2023-04-15T09:25:08.509Z,96269.78
2023-04-15T09:27:34.927Z,96274.50
2023-04-15T09:30:01.372Z,96283.16
2023-04-15T09:32:27.883Z,96286.44
2023-04-15T09:34:54.804Z,96289.88
2023-04-15T09:37:32.443Z,96297.22
2023-04-15T09:39:59.084Z,96302.47
2023-04-15T09:42:25.459Z,96290.69
2023-04-15T09:44:51.905Z,96302.94
2023-04-15T09:47:19.372Z,96316.13
2023-04-15T09:49:46.973Z,96311.81
2023-04-15T09:52:13.473Z,96308.94
2023-04-15T09:54:39.890Z,96310.53
2023-04-15T09:57:06.425Z,96310.41
2023-04-15T09:59:32.903Z,96312.25
2023-04-15T10:04:39.689Z,96330.25
2023-04-15T10:07:06.221Z,96329.22
2023-04-15T10:09:32.647Z,96329.00
2023-04-15T10:12:04.456Z,96338.16
2023-04-15T10:14:31.384Z,96341.81
2023-04-15T10:16:57.807Z,96345.91
2023-04-15T10:19:24.355Z,96344.19
2023-04-15T10:21:53.917Z,96349.75
2023-04-15T10:24:21.080Z,96351.75
2023-04-15T10:26:50.272Z,96354.78
2023-04-15T10:29:16.709Z,96363.69
2023-04-15T10:31:43.106Z,96365.75
2023-04-15T10:34:09.488Z,96370.91
2023-04-15T10:36:35.902Z,96375.41
2023-04-15T10:39:02.279Z,96380.63
2023-04-15T10:41:28.639Z,96377.41
2023-04-15T10:43:55.006Z,96381.00
2023-04-15T10:46:21.451Z,96378.22
2023-04-15T10:48:47.912Z,96373.19
2023-04-15T10:51:18.313Z,96375.13
2023-04-15T10:53:45.182Z,96385.19
2023-04-15T10:56:12.022Z,96385.31
2023-04-15T10:58:38.447Z,96398.31
2023-04-15T11:01:04.856Z,96404.13
2023-04-15T11:03:32.239Z,96408.47
2023-04-15T11:05:58.677Z,96411.53
2023-04-15T11:08:25.077Z,96406.75
2023-04-15T11:10:51.520Z,96406.28
2023-04-15T11:13:17.900Z,96415.78
2023-04-15T11:15:44.291Z,96419.44
2023-04-15T11:18:10.788Z,96419.44
2023-04-15T11:20:39.551Z,96424.00
2023-04-15T11:23:14.222Z,96418.25
2023-04-15T11:25:41.875Z,96419.91
2023-04-15T11:28:13.893Z,96413.69
2023-04-15T11:30:48.348Z,96431.09
2023-04-15T11:33:14.797Z,96433.09
2023-04-15T11:35:41.170Z,96433.03
2023-04-15T11:38:07.687Z,96434.63
2023-04-15T11:40:34.262Z,96441.19
2023-04-15T11:43:00.658Z,96444.88
2023-04-15T11:45:27.145Z,96449.22
2023-04-15T11:48:18.050Z,96455.50
2023-04-15T11:50:44.439Z,96453.78
2023-04-15T11:53:11.011Z,96454.78
2023-04-15T11:55:37.478Z,96459.81
2023-04-15T11:58:03.891Z,96461.41
2023-04-15T12:00:30.265Z,96468.22
2023-04-15T12:02:56.799Z,96470.91
2023-04-15T12:05:23.384Z,96473.03
2023-04-15T12:07:50.098Z,96472.63
2023-04-15T12:10:16.614Z,96479.25
2023-04-15T12:12:43.096Z,96478.66
2023-04-15T12:15:09.508Z,96484.53
2023-04-15T12:17:51.293Z,96480.75
2023-04-15T12:20:18.789Z,96489.84
2023-04-15T12:22:55.418Z,96496.00
2023-04-15T12:25:22.051Z,96492.94
2023-04-15T12:27:50.990Z,96490.31
2023-04-15T12:30:17.393Z,96487.47
2023-04-15T12:32:43.910Z,96503.53
2023-04-15T12:35:10.351Z,96492.19
2023-04-15T12:37:36.798Z,96503.97
2023-04-15T12:40:03.217Z,96497.38
2023-04-15T12:42:29.663Z,96505.00
2023-04-15T12:44:56.058Z,96500.81
2023-04-15T12:47:22.488Z,96499.13
2023-04-15T12:49:48.849Z,96511.13
2023-04-15T12:52:15.209Z,96515.41
2023-04-15T12:54:41.614Z,96514.03
2023-04-15T12:57:08.010Z,96519.81
2023-04-15T12:59:34.412Z,96519.69
2023-04-15T13:02:01.027Z,96514.03
2023-04-15T13:04:27.572Z,96520.00
2023-04-15T13:06:53.978Z,96525.31
2023-04-15T13:09:20.360Z,96526.84
2023-04-15T13:11:46.780Z,96528.69
2023-04-15T13:14:13.418Z,96532.91
2023-04-15T13:16:39.933Z,96531.31
2023-04-15T13:19:06.502Z,96530.97
2023-04-15T13:21:33.956Z,96532.16
2023-04-15T13:24:00.343Z,96535.91
2023-04-15T13:26:26.799Z,96541.09
2023-04-15T13:28:53.188Z,96541.66
2023-04-15T13:31:20.919Z,96549.06
2023-04-15T13:33:47.437Z,96555.16
2023-04-15T13:36:13.897Z,96550.84
2023-04-15T13:38:40.259Z,96553.81
2023-04-15T13:41:06.647Z,96566.44
2023-04-15T13:43:33.042Z,96566.63
2023-04-15T13:45:59.502Z,96565.50
2023-04-15T13:48:25.925Z,96572.53
2023-04-15T13:50:52.312Z,96576.78
2023-04-15T13:53:18.805Z,96579.78
2023-04-15T13:55:45.295Z,96586.94
2023-04-15T13:58:11.929Z,96595.13
2023-04-15T14:00:40.368Z,96589.44
2023-04-15T14:03:06.906Z,96594.03
2023-04-15T14:05:33.676Z,96591.59
2023-04-15T14:08:00.182Z,96597.81
2023-04-15T14:10:26.637Z,96596.31
2023-04-15T14:12:53.438Z,96606.25
2023-04-15T14:15:19.813Z,96607.75
2023-04-15T14:17:46.297Z,96610.97
2023-04-15T14:20:13.989Z,96609.47
2023-04-15T14:25:34.060Z,96609.69
2023-04-15T14:28:00.699Z,96612.81
2023-04-15T14:30:27.274Z,96616.84
2023-04-15T14:32:54.371Z,96628.44
2023-04-15T14:35:20.949Z,96636.16
2023-04-15T14:37:47.400Z,96637.63
2023-04-15T14:40:13.863Z,96640.03
2023-04-15T14:42:40.271Z,96645.41
2023-04-15T14:45:07.985Z,96643.22
2023-04-15T14:47:53.412Z,96649.72
2023-04-15T14:50:19.883Z,96645.66
2023-04-15T14:52:50.761Z,96651.47
2023-04-15T14:55:17.244Z,96675.50
2023-04-15T14:57:43.924Z,96666.88
2023-04-15T15:00:10.354Z,96668.97
2023-04-15T15:02:40.326Z,96666.94
2023-04-15T15:05:07.217Z,96674.06
2023-04-15T15:07:33.788Z,96675.84
2023-04-15T15:10:00.238Z,96682.88
2023-04-15T15:12:26.671Z,96679.97
2023-04-15T15:14:53.124Z,96690.16
2023-04-15T15:17:23.969Z,96695.41
2023-04-15T15:19:50.529Z,96687.91
2023-04-15T15:22:17.557Z,96697.78
2023-04-15T15:24:44.928Z,96703.56
2023-04-15T15:27:11.424Z,96699.63
2023-04-15T15:29:37.793Z,96705.38
2023-04-15T15:32:04.156Z,96705.16
2023-04-15T15:34:30.614Z,96709.53
2023-04-15T15:36:57.100Z,96709.72
2023-04-15T15:39:23.498Z,96713.75
2023-04-15T15:41:49.860Z,96717.34
2023-04-15T15:44:16.489Z,96729.91
2023-04-15T15:46:42.933Z,96726.91
2023-04-15T15:49:09.330Z,96726.47
2023-04-15T15:51:35.771Z,96729.78
2023-04-15T15:54:02.177Z,96730.69
2023-04-15T15:56:28.622Z,96732.94
2023-04-15T15:58:54.949Z,96741.16
2023-04-15T16:01:21.387Z,96742.16
2023-04-15T16:03:48.015Z,96736.34
2023-04-15T16:06:14.530Z,96750.91
2023-04-15T16:08:40.988Z,96754.88
2023-04-15T16:11:07.445Z,96756.72
2023-04-15T16:13:33.862Z,96757.19
2023-04-15T16:16:00.325Z,96753.72
2023-04-15T16:18:26.758Z,96751.88
2023-04-15T16:20:53.151Z,96758.16
2023-04-15T16:23:19.605Z,96760.63
2023-04-15T16:25:46.048Z,96766.81
2023-04-15T16:28:25.190Z,96765.00
2023-04-15T16:30:53.087Z,96795.00
2023-04-15T16:33:19.822Z,96766.69
2023-04-15T16:35:46.191Z,96780.47
2023-04-15T16:38:12.656Z,96785.84
2023-04-15T16:40:39.075Z,96784.34
2023-04-15T16:43:05.406Z,96790.72
2023-04-15T16:45:31.798Z,96789.72
2023-04-15T16:47:58.301Z,96803.31
2023-04-15T16:50:25.388Z,96804.78
2023-04-15T16:52:51.821Z,96807.03
2023-04-15T16:55:18.230Z,96814.72
2023-04-15T16:58:02.742Z,96813.94
2023-04-15T17:00:29.845Z,96819.75
2023-04-15T17:02:56.467Z,96834.66
2023-04-15T17:05:22.979Z,96832.63
2023-04-15T17:07:49.426Z,96840.88
2023-04-15T17:10:16.983Z,96850.00
2023-04-15T17:12:43.563Z,96859.53
2023-04-15T17:15:10.021Z,96855.81
2023-04-15T17:17:36.452Z,96868.38
2023-04-15T17:20:02.879Z,96877.69
2023-04-15T17:22:29.214Z,96878.16
2023-04-15T17:24:58.055Z,96882.50
2023-04-15T17:27:24.447Z,96878.56
2023-04-15T17:29:53.042Z,96892.38
2023-04-15T17:32:19.476Z,96896.72
2023-04-15T17:34:49.729Z,96899.03
2023-04-15T17:37:17.548Z,96894.28
2023-04-15T17:39:43.989Z,96901.28
2023-04-15T17:42:10.383Z,96898.38
2023-04-15T17:44:36.916Z,96906.66
2023-04-15T17:47:03.329Z,96903.34
2023-04-15T17:49:29.736Z,96906.63
2023-04-15T17:51:56.221Z,96907.44
2023-04-15T17:57:02.958Z,96913.41
2023-04-15T17:59:30.080Z,96918.59
2023-04-15T18:01:57.106Z,96929.13
2023-04-15T18:04:26.513Z,96929.34
2023-04-15T18:06:53.469Z,96939.69
2023-04-15T18:12:00.242Z,96950.19
2023-04-15T18:14:34.228Z,96940.88
2023-04-15T18:17:01.303Z,96948.72
2023-04-15T18:19:27.976Z,96952.69
2023-04-15T18:21:54.778Z,96958.66
2023-04-15T18:24:21.259Z,96964.03
2023-04-15T18:26:48.994Z,96979.56
2023-04-15T18:29:15.719Z,96976.88
2023-04-15T18:31:42.305Z,96979.34
2023-04-15T18:34:08.939Z,96985.53
2023-04-15T18:36:35.445Z,96990.91
2023-04-15T18:39:02.075Z,97002.28
2023-04-15T18:41:29.650Z,97009.09
2023-04-15T18:43:56.296Z,97009.94
2023-04-15T18:46:22.824Z,97006.63
2023-04-15T18:48:49.340Z,97009.94
2023-04-15T18:51:16.893Z,97005.78
2023-04-15T18:53:43.401Z,97024.59
2023-04-15T18:56:09.834Z,97033.69
2023-04-15T18:59:23.070Z,97040.53
2023-04-15T19:01:22.983Z,97049.16
2023-04-15T19:03:49.409Z,97051.25
2023-04-15T19:06:18.829Z,97049.16
2023-04-15T19:08:45.241Z,97053.94
2023-04-15T19:11:13.701Z,97058.69
2023-04-15T19:13:40.128Z,97063.66
2023-04-15T19:16:06.538Z,97064.66
2023-04-15T19:18:32.952Z,97062.00
2023-04-15T19:21:01.354Z,97069.44
2023-04-15T19:23:27.714Z,97073.16
2023-04-15T19:25:54.121Z,97080.59
2023-04-15T19:28:20.557Z,97073.97
2023-04-15T19:30:46.986Z,97084.34
2023-04-15T19:33:14.380Z,97081.84
2023-04-15T19:35:40.799Z,97080.19
2023-04-15T19:38:07.251Z,97090.53
2023-04-15T19:40:33.952Z,97091.53
2023-04-15T19:43:00.357Z,97089.91
2023-04-15T19:45:28.959Z,97100.25
2023-04-15T19:47:55.332Z,97101.28
2023-04-15T19:50:21.697Z,97115.72
2023-04-15T19:52:49.583Z,97115.31
2023-04-15T19:55:15.998Z,97120.69
2023-04-15T19:57:42.422Z,97124.44
2023-04-15T20:00:08.810Z,97131.84
2023-04-15T20:02:35.321Z,97131.84
2023-04-15T20:05:01.861Z,97130.03
2023-04-15T20:07:28.287Z,97137.88
2023-04-15T20:09:54.681Z,97139.72
2023-04-15T20:12:50.838Z,97132.91
2023-04-15T20:15:08.501Z,97133.94
2023-04-15T20:17:34.906Z,97137.66
2023-04-15T20:20:02.567Z,97134.34
2023-04-15T20:22:28.998Z,97127.94
2023-04-15T20:24:55.955Z,97132.06
2023-04-15T20:27:22.350Z,97140.53
2023-04-15T20:29:50.027Z,97136.00
2023-04-15T20:32:16.499Z,97132.25
2023-04-15T20:34:42.908Z,97128.97
2023-04-15T20:37:09.396Z,97129.19
2023-04-15T20:39:35.821Z,97133.09
2023-04-15T20:42:02.228Z,97136.81
2023-04-15T20:44:28.706Z,97138.03
2023-04-15T20:46:55.091Z,97133.06
2023-04-15T20:49:21.600Z,97121.50
2023-04-15T20:51:48.307Z,97138.03
2023-04-15T20:54:14.813Z,97139.09
2023-04-15T20:56:41.246Z,97141.97
2023-04-15T20:59:08.943Z,97148.81
2023-04-15T21:01:36.672Z,97137.66
2023-04-15T21:04:03.097Z,97143.63
2023-04-15T21:06:29.629Z,97149.22
2023-04-15T21:08:56.091Z,97150.88
2023-04-15T21:11:45.745Z,97144.28
2023-04-15T21:14:18.566Z,97148.19
2023-04-15T21:16:45.036Z,97145.28
2023-04-15T21:19:11.553Z,97138.47
2023-04-15T21:21:38.072Z,97139.09
2023-04-15T21:24:06.438Z,97143.03
2023-04-15T21:26:34.198Z,97147.31
2023-04-15T21:29:01.079Z,97153.53
2023-04-15T21:31:28.685Z,97155.63
2023-04-15T21:33:57.347Z,97156.22
2023-04-15T21:36:43.797Z,97157.47
2023-04-15T21:39:10.241Z,97170.50
2023-04-15T21:41:36.638Z,97162.22
2023-04-15T21:46:53.702Z,97163.91
2023-04-15T21:49:22.695Z,97166.59
2023-04-15T21:51:50.760Z,97168.25
2023-04-15T21:54:17.316Z,97160.19
2023-04-15T21:56:43.886Z,97168.44
2023-04-15T21:59:10.379Z,97174.44
2023-04-15T22:01:36.978Z,97176.91
2023-04-15T22:04:03.821Z,97173.22
2023-04-15T22:06:30.354Z,97186.44
2023-04-15T22:08:57.961Z,97191.00
2023-04-15T22:11:24.544Z,97188.09
2023-04-15T22:13:51.016Z,97191.41
2023-04-15T22:16:17.488Z,97187.69
2023-04-15T22:18:43.945Z,97192.66
2023-04-15T22:21:10.500Z,97202.38
2023-04-15T22:23:37.490Z,97200.09
2023-04-15T22:26:04.066Z,97201.91
2023-04-15T22:28:30.477Z,97201.75
2023-04-15T22:30:57.009Z,97213.91
2023-04-15T22:33:23.507Z,97215.78
2023-04-15T22:35:49.976Z,97212.91
2023-04-15T22:38:16.485Z,97216.41
2023-04-15T22:40:42.927Z,97213.34
2023-04-15T22:43:09.399Z,97218.28
2023-04-15T22:45:35.864Z,97210.66
2023-04-15T22:48:02.534Z,97215.16
2023-04-15T22:53:19.685Z,97211.44
2023-04-15T22:55:46.156Z,97208.75
2023-04-15T22:58:12.701Z,97204.19
2023-04-15T23:00:39.214Z,97208.75
2023-04-15T23:03:05.794Z,97217.44
2023-04-15T23:05:33.926Z,97223.41
2023-04-15T23:08:00.432Z,97230.00
2023-04-15T23:10:26.848Z,97230.03
2023-04-15T23:12:53.400Z,97231.47
2023-04-15T23:15:19.892Z,97235.81
2023-04-15T23:17:46.477Z,97234.78
2023-04-15T23:20:13.052Z,97237.50
2023-04-15T23:22:39.580Z,97236.28
2023-04-15T23:25:06.124Z,97241.22
2023-04-15T23:27:32.596Z,97245.34
2023-04-15T23:29:59.047Z,97242.44
2023-04-15T23:32:25.498Z,97248.81
2023-04-15T23:34:51.892Z,97249.66
2023-04-15T23:37:18.272Z,97249.66
2023-04-15T23:39:44.838Z,97252.78
2023-04-15T23:42:11.319Z,97250.50
2023-04-15T23:44:37.923Z,97250.09
2023-04-15T23:47:04.599Z,97253.38
2023-04-15T23:49:31.182Z,97263.94
2023-04-15T23:51:57.667Z,97258.34
2023-04-15T23:54:24.100Z,97256.72
2023-04-15T23:56:50.605Z,97255.47
2023-04-15T23:59:17.110Z,97248.41
